createdAt,value
2019-03-15T00:03:18.324Z,9.97
2019-03-15T00:07:23.212Z,12.90
2019-03-15T00:11:28.123Z,15.20
2019-03-15T00:15:33.012Z,15.60
2019-03-15T00:19:37.927Z,12.80
2019-03-15T00:23:42.816Z,10.67
2019-03-15T00:27:47.718Z,13.60
2019-03-15T00:31:52.614Z,12.50
2019-03-15T00:35:57.529Z,16.57
2019-03-15T00:40:02.430Z,16.67
2019-03-15T00:44:07.313Z,15.90
2019-03-15T00:48:12.216Z,13.83
2019-03-15T00:52:17.123Z,10.77
2019-03-15T00:56:22.024Z,9.77
2019-03-15T01:00:26.937Z,15.73
2019-03-15T01:04:31.893Z,18.53
2019-03-15T01:08:36.783Z,9.93
2019-03-15T01:12:41.681Z,11.70
2019-03-15T01:16:46.578Z,18.57
2019-03-15T01:20:51.456Z,10.20
2019-03-15T01:24:56.352Z,14.20
2019-03-15T01:29:01.255Z,14.07
2019-03-15T01:33:06.142Z,15.53
2019-03-15T01:37:11.064Z,15.70
2019-03-15T01:41:15.928Z,10.47
2019-03-15T01:45:20.830Z,12.67
2019-03-15T01:49:25.737Z,16.87
2019-03-15T01:53:30.640Z,14.63
2019-03-15T01:57:35.541Z,15.57
2019-03-15T02:01:40.426Z,15.17
2019-03-15T02:05:45.322Z,10.80
2019-03-15T02:09:50.215Z,13.23
2019-03-15T02:13:55.125Z,10.63
2019-03-15T02:18:00.028Z,13.07
2019-03-15T02:22:04.913Z,14.37
2019-03-15T02:26:09.808Z,16.17
2019-03-15T02:30:14.705Z,20.07
2019-03-15T02:34:19.600Z,13.57
2019-03-15T02:38:24.511Z,10.57
2019-03-15T02:42:29.384Z,14.47
2019-03-15T02:46:34.285Z,16.07
2019-03-15T02:50:39.178Z,12.40
2019-03-15T02:54:44.074Z,9.70
2019-03-15T02:58:48.966Z,12.63
2019-03-15T03:02:54.192Z,10.00
2019-03-15T03:06:59.345Z,16.57
2019-03-15T03:11:04.245Z,11.97
2019-03-15T03:15:09.582Z,14.03
2019-03-15T03:19:14.472Z,9.00
2019-03-15T03:23:19.355Z,10.60
2019-03-15T03:27:24.253Z,15.60
2019-03-15T03:31:29.154Z,16.43
2019-03-15T03:35:34.052Z,9.70
2019-03-15T03:39:38.958Z,10.20
2019-03-15T03:43:43.841Z,21.00
2019-03-15T03:47:48.728Z,17.37
2019-03-15T03:51:53.628Z,13.10
2019-03-15T03:55:58.532Z,9.17
2019-03-15T04:00:05.214Z,11.03
2019-03-15T04:04:10.099Z,7.27
2019-03-15T04:08:14.988Z,9.83
2019-03-15T04:12:20.961Z,9.00
2019-03-15T04:16:25.856Z,13.07
2019-03-15T04:20:30.751Z,11.17
2019-03-15T04:24:35.636Z,11.60
2019-03-15T04:28:40.531Z,9.37
2019-03-15T04:32:45.420Z,5.13
2019-03-15T04:36:51.296Z,9.03
2019-03-15T04:40:56.226Z,11.93
2019-03-15T04:45:01.093Z,8.60
2019-03-15T04:49:05.972Z,16.40
2019-03-15T04:53:10.866Z,8.27
2019-03-15T04:57:15.761Z,12.60
2019-03-15T05:01:20.663Z,8.90
2019-03-15T05:05:25.550Z,7.57
2019-03-15T05:09:30.441Z,8.03
2019-03-15T05:13:35.324Z,11.83
2019-03-15T05:17:40.234Z,12.43
2019-03-15T05:21:45.122Z,11.73
2019-03-15T05:25:50.031Z,10.07
2019-03-15T05:29:54.918Z,13.00
2019-03-15T05:33:59.807Z,8.13
2019-03-15T05:38:04.701Z,10.30
2019-03-15T05:42:09.597Z,10.93
2019-03-15T05:46:14.500Z,14.23
2019-03-15T05:50:19.382Z,12.13
2019-03-15T05:54:24.284Z,10.80
2019-03-15T05:58:30.243Z,7.03
2019-03-15T06:02:35.156Z,13.03
2019-03-15T06:06:40.181Z,10.97
2019-03-15T06:10:45.000Z,10.60
2019-03-15T06:14:49.897Z,15.63
2019-03-15T06:18:54.795Z,14.70
2019-03-15T06:22:59.744Z,14.43
2019-03-15T06:27:04.646Z,7.37
2019-03-15T06:31:09.526Z,11.77
2019-03-15T06:35:14.416Z,9.97
2019-03-15T06:39:19.299Z,9.00
2019-03-15T06:43:24.191Z,10.00
2019-03-15T06:47:30.044Z,12.87
2019-03-15T06:51:35.058Z,9.53
2019-03-15T06:55:39.943Z,11.90
2019-03-15T06:59:44.845Z,11.87
2019-03-15T07:03:49.745Z,10.73
2019-03-15T07:07:54.662Z,8.20
2019-03-15T07:12:08.946Z,8.43
2019-03-15T07:16:06.135Z,6.00
2019-03-15T07:20:15.109Z,17.03
2019-03-15T07:24:25.246Z,6.53
2019-03-15T07:28:26.597Z,7.50
2019-03-15T07:32:31.484Z,6.03
2019-03-15T07:36:37.331Z,8.50
2019-03-15T07:40:43.323Z,4.77
2019-03-15T07:44:49.110Z,8.20
2019-03-15T07:48:54.063Z,4.87
2019-03-15T07:52:58.947Z,5.27
2019-03-15T07:57:03.834Z,3.47
2019-03-15T08:01:08.726Z,4.43
2019-03-15T08:05:13.638Z,2.27
2019-03-15T08:09:19.587Z,2.47
2019-03-15T08:13:24.488Z,4.30
2019-03-15T08:17:29.366Z,1.00
2019-03-15T08:21:34.258Z,5.60
2019-03-15T08:25:39.447Z,5.57
2019-03-15T08:29:44.348Z,5.17
2019-03-15T08:33:49.235Z,4.53
2019-03-15T08:37:54.105Z,3.20
2019-03-15T08:41:59.829Z,2.57
2019-03-15T08:46:04.721Z,2.17
2019-03-15T08:50:17.718Z,3.40
2019-03-15T08:54:23.571Z,3.83
2019-03-15T08:58:28.461Z,1.90
2019-03-15T09:02:33.350Z,2.67
2019-03-15T09:06:40.790Z,1.60
2019-03-15T09:10:44.832Z,2.13
2019-03-15T09:14:49.724Z,3.60
2019-03-15T09:18:55.592Z,1.67
2019-03-15T09:23:00.585Z,1.00
2019-03-15T09:27:05.557Z,1.33
2019-03-15T09:31:10.453Z,0.80
2019-03-15T09:35:15.353Z,0.70
2019-03-15T09:39:20.237Z,0.60
2019-03-15T09:43:25.140Z,0.80
2019-03-15T09:47:30.037Z,1.13
2019-03-15T09:51:34.932Z,1.63
2019-03-15T09:55:39.835Z,0.97
2019-03-15T09:59:44.730Z,2.10
2019-03-15T10:03:49.626Z,1.07
2019-03-15T10:07:54.525Z,1.53
2019-03-15T10:11:59.424Z,1.90
2019-03-15T10:16:04.323Z,0.60
2019-03-15T10:20:12.504Z,0.57
2019-03-15T10:24:17.477Z,0.87
2019-03-15T10:28:23.445Z,1.77
2019-03-15T10:32:28.417Z,0.83
2019-03-15T10:36:34.613Z,0.97
2019-03-15T10:40:39.796Z,0.20
2019-03-15T10:44:44.682Z,0.17
2019-03-15T10:48:49.585Z,0.30
2019-03-15T10:52:54.485Z,0.97
2019-03-15T10:56:59.379Z,0.10
2019-03-15T11:01:04.506Z,0.40
2019-03-15T11:05:10.450Z,0.10
2019-03-15T11:09:15.352Z,0.57
2019-03-15T11:13:20.254Z,0.17
2019-03-15T11:17:25.172Z,0.10
2019-03-15T11:21:30.052Z,0.10
2019-03-15T11:25:34.950Z,0.10
2019-03-15T11:29:39.843Z,0.43
2019-03-15T11:33:47.258Z,0.37
2019-03-15T11:37:52.419Z,0.10
2019-03-15T11:41:57.306Z,0.10
2019-03-15T11:46:02.203Z,1.90
2019-03-15T11:50:16.191Z,0.23
2019-03-15T11:54:21.089Z,0.20
2019-03-15T11:58:25.996Z,0.20
2019-03-15T12:02:30.900Z,1.60
2019-03-15T12:06:35.790Z,0.23
2019-03-15T12:10:40.696Z,0.20
2019-03-15T12:14:45.577Z,0.20
2019-03-15T12:18:50.472Z,0.83
2019-03-15T12:22:55.382Z,0.10
2019-03-15T12:27:00.321Z,1.63
2019-03-15T12:31:05.225Z,0.33
2019-03-15T12:35:12.443Z,0.27
2019-03-15T12:39:17.690Z,0.30
2019-03-15T12:43:22.597Z,0.70
2019-03-15T12:47:27.485Z,0.40
2019-03-15T12:51:32.620Z,0.60
2019-03-15T12:55:37.618Z,0.70
2019-03-15T12:59:42.467Z,1.23
2019-03-15T13:03:47.367Z,1.13
2019-03-15T13:07:52.301Z,0.20
2019-03-15T13:11:57.168Z,0.37
2019-03-15T13:16:02.068Z,1.03
2019-03-15T13:20:10.039Z,0.47
2019-03-15T13:24:15.000Z,0.60
2019-03-15T13:28:19.891Z,1.20
2019-03-15T13:32:24.789Z,1.80
2019-03-15T13:36:29.705Z,0.20
2019-03-15T13:40:34.603Z,0.70
2019-03-15T13:44:40.505Z,2.27
2019-03-15T13:48:45.425Z,0.60
2019-03-15T13:52:50.320Z,0.40
2019-03-15T13:56:55.223Z,0.43
2019-03-15T14:01:00.116Z,0.47
2019-03-15T14:05:05.635Z,0.20
2019-03-15T14:09:10.510Z,0.20
2019-03-15T14:13:15.491Z,0.10
2019-03-15T14:17:20.384Z,0.63
2019-03-15T14:21:26.585Z,0.33
2019-03-15T14:25:31.475Z,0.50
2019-03-15T14:29:36.367Z,0.20
2019-03-15T14:33:41.263Z,0.63
2019-03-15T14:37:46.296Z,0.90
2019-03-15T14:41:51.272Z,1.60
2019-03-15T14:45:56.174Z,0.50
2019-03-15T14:50:00.999Z,0.20
2019-03-15T14:54:06.968Z,2.37
2019-03-15T14:58:11.868Z,0.30
2019-03-15T15:02:16.775Z,0.20
2019-03-15T15:06:21.669Z,1.17
2019-03-15T15:10:26.571Z,1.50
2019-03-15T15:14:31.451Z,0.77
2019-03-15T15:18:36.356Z,0.57
2019-03-15T15:22:41.245Z,2.13
2019-03-15T15:26:46.170Z,0.20
2019-03-15T15:30:51.070Z,0.30
2019-03-15T15:34:57.029Z,0.30
2019-03-15T15:39:01.930Z,1.73
2019-03-15T15:43:07.203Z,1.50
2019-03-15T15:47:12.111Z,0.30
2019-03-15T15:51:17.006Z,0.20
2019-03-15T15:55:21.901Z,0.30
2019-03-15T15:59:26.788Z,0.97
2019-03-15T16:03:31.681Z,0.60
2019-03-15T16:07:36.693Z,0.90
2019-03-15T16:11:41.558Z,0.57
2019-03-15T16:15:46.458Z,0.43
2019-03-15T16:19:51.350Z,2.30
2019-03-15T16:23:56.252Z,0.33
2019-03-15T16:28:01.149Z,1.90
2019-03-15T16:32:06.044Z,1.07
2019-03-15T16:36:10.940Z,0.20
2019-03-15T16:40:16.281Z,0.67
2019-03-15T16:44:21.167Z,1.23
2019-03-15T16:48:26.064Z,0.20
2019-03-15T16:52:30.956Z,1.27
2019-03-15T16:56:35.862Z,0.10
2019-03-15T17:00:40.758Z,0.77
2019-03-15T17:04:45.653Z,0.50
2019-03-15T17:08:50.552Z,0.40
2019-03-15T17:12:56.007Z,0.53
2019-03-15T17:17:00.986Z,0.70
2019-03-15T17:21:05.906Z,1.00
2019-03-15T17:25:12.045Z,0.77
2019-03-15T17:29:17.005Z,0.50
2019-03-15T17:33:21.906Z,1.20
2019-03-15T17:37:26.788Z,0.80
2019-03-15T17:41:31.711Z,2.60
2019-03-15T17:45:36.600Z,1.37
2019-03-15T17:49:41.490Z,1.03
2019-03-15T17:53:46.385Z,0.77
2019-03-15T17:57:51.286Z,0.27
2019-03-15T18:01:56.181Z,0.40
2019-03-15T18:06:01.078Z,0.30
2019-03-15T18:10:07.325Z,0.20
2019-03-15T18:14:12.203Z,0.53
2019-03-15T18:18:17.093Z,0.90
2019-03-15T18:22:21.984Z,0.40
2019-03-15T18:26:26.882Z,0.10
2019-03-15T18:30:31.777Z,0.33
2019-03-15T18:34:36.687Z,2.53
2019-03-15T18:38:41.583Z,0.30
2019-03-15T18:42:46.650Z,0.83
2019-03-15T18:46:51.542Z,0.70
2019-03-15T18:50:56.434Z,0.67
2019-03-15T18:55:01.342Z,1.43
2019-03-15T18:59:07.473Z,0.40
2019-03-15T19:03:12.489Z,0.43
2019-03-15T19:07:17.377Z,0.60
2019-03-15T19:11:22.274Z,1.10
2019-03-15T19:15:27.178Z,2.50
2019-03-15T19:19:32.062Z,2.30
2019-03-15T19:23:36.965Z,0.53
2019-03-15T19:27:41.864Z,0.67
2019-03-15T19:31:46.761Z,5.30
2019-03-15T19:35:51.649Z,0.30
2019-03-15T19:39:56.543Z,1.13
2019-03-15T19:44:01.467Z,0.40
2019-03-15T19:48:06.359Z,1.33
2019-03-15T19:52:11.299Z,0.20
2019-03-15T19:56:16.211Z,0.83
2019-03-15T20:00:22.048Z,1.00
2019-03-15T20:04:26.953Z,0.73
2019-03-15T20:08:31.841Z,0.63
2019-03-15T20:12:36.736Z,0.30
2019-03-15T20:16:41.658Z,0.90
2019-03-15T20:20:46.544Z,0.40
2019-03-15T20:24:51.518Z,0.20
2019-03-15T20:28:56.416Z,0.30
2019-03-15T20:33:01.323Z,1.67
2019-03-15T20:37:06.228Z,0.13
2019-03-15T20:41:11.113Z,0.27
2019-03-15T20:45:25.012Z,0.20
2019-03-15T20:49:29.975Z,1.27
2019-03-15T20:53:34.884Z,0.40
2019-03-15T20:57:39.784Z,0.10
2019-03-15T21:01:44.665Z,0.20
2019-03-15T21:05:49.569Z,0.20
2019-03-15T21:09:54.463Z,0.30
2019-03-15T21:13:59.369Z,2.63
2019-03-15T21:18:04.267Z,0.50
2019-03-15T21:22:09.231Z,1.90
2019-03-15T21:26:14.136Z,1.50
2019-03-15T21:30:20.578Z,0.70
2019-03-15T21:34:25.472Z,2.13
2019-03-15T21:38:30.378Z,0.27
2019-03-15T21:42:35.258Z,2.77
2019-03-15T21:46:40.164Z,0.93
2019-03-15T21:50:45.059Z,1.20
2019-03-15T21:54:51.026Z,0.90
2019-03-15T21:58:55.919Z,1.40
2019-03-15T22:03:00.811Z,0.87
2019-03-15T22:07:05.709Z,2.50
2019-03-15T22:11:20.674Z,6.07
2019-03-15T22:15:17.241Z,1.77
2019-03-15T22:19:22.120Z,3.43
2019-03-15T22:23:26.989Z,4.70
2019-03-15T22:27:31.880Z,3.10
2019-03-15T22:31:36.791Z,2.67
2019-03-15T22:35:41.686Z,1.77
2019-03-15T22:39:46.587Z,5.10
2019-03-15T22:43:52.946Z,2.50
2019-03-15T22:47:57.845Z,2.13
2019-03-15T22:52:02.744Z,1.83
2019-03-15T22:56:07.647Z,1.20
2019-03-15T23:00:21.062Z,2.53
2019-03-15T23:04:27.541Z,3.10
2019-03-15T23:08:32.470Z,4.60
2019-03-15T23:12:37.327Z,2.80
2019-03-15T23:16:42.220Z,3.90
2019-03-15T23:20:47.126Z,5.40
2019-03-15T23:24:52.021Z,4.57
2019-03-15T23:28:56.916Z,5.13
2019-03-15T23:33:02.881Z,3.10
2019-03-15T23:37:07.778Z,2.00
2019-03-15T23:41:12.690Z,2.00
2019-03-15T23:45:17.572Z,2.80
2019-03-15T23:49:22.478Z,4.17
2019-03-15T23:53:27.367Z,3.73
2019-03-15T23:57:32.260Z,4.00
